sensor_id;sensor_type;location;lat;lon;timestamp;temperature;humidity
15160;DHT22;7680;48.800;9.680;2023-08-08T00:02:49;10.60;99.90
15160;DHT22;7680;48.800;9.680;2023-08-08T00:07:52;10.50;99.90
15160;DHT22;7680;48.800;9.680;2023-08-08T00:12:56;10.50;99.90
15160;DHT22;7680;48.800;9.680;2023-08-08T00:17:59;10.50;99.90
15160;DHT22;7680;48.800;9.680;2023-08-08T00:23:03;10.50;99.90
15160;DHT22;7680;48.800;9.680;2023-08-08T00:28:08;10.30;99.90
15160;DHT22;7680;48.800;9.680;2023-08-08T00:33:11;10.30;99.90
15160;DHT22;7680;48.800;9.680;2023-08-08T00:38:14;10.30;99.90
15160;DHT22;7680;48.800;9.680;2023-08-08T00:43:21;10.30;99.90
15160;DHT22;7680;48.800;9.680;2023-08-08T00:48:24;10.30;99.90
15160;DHT22;7680;48.800;9.680;2023-08-08T00:53:29;10.30;99.90
15160;DHT22;7680;48.800;9.680;2023-08-08T00:58:34;10.30;99.90
15160;DHT22;7680;48.800;9.680;2023-08-08T01:03:37;10.30;99.90
15160;DHT22;7680;48.800;9.680;2023-08-08T01:08:47;10.20;99.90
15160;DHT22;7680;48.800;9.680;2023-08-08T01:13:55;10.30;99.90
15160;DHT22;7680;48.800;9.680;2023-08-08T01:18:59;10.50;99.90
15160;DHT22;7680;48.800;9.680;2023-08-08T01:24:17;10.50;99.90
15160;DHT22;7680;48.800;9.680;2023-08-08T01:29:22;10.60;99.90
15160;DHT22;7680;48.800;9.680;2023-08-08T01:34:25;10.60;99.90
15160;DHT22;7680;48.800;9.680;2023-08-08T01:39:30;10.60;99.90
15160;DHT22;7680;48.800;9.680;2023-08-08T01:44:35;10.60;99.90
15160;DHT22;7680;48.800;9.680;2023-08-08T01:49:41;10.60;99.90
15160;DHT22;7680;48.800;9.680;2023-08-08T01:54:46;10.60;99.90
15160;DHT22;7680;48.800;9.680;2023-08-08T01:59:49;10.80;99.90
15160;DHT22;7680;48.800;9.680;2023-08-08T02:04:52;10.70;99.90
15160;DHT22;7680;48.800;9.680;2023-08-08T02:09:56;10.80;99.90
15160;DHT22;7680;48.800;9.680;2023-08-08T02:15:00;10.80;99.90
15160;DHT22;7680;48.800;9.680;2023-08-08T02:20:04;10.80;99.90
15160;DHT22;7680;48.800;9.680;2023-08-08T02:25:09;10.90;99.90
15160;DHT22;7680;48.800;9.680;2023-08-08T02:30:13;10.90;99.90
15160;DHT22;7680;48.800;9.680;2023-08-08T02:35:17;10.90;99.90
15160;DHT22;7680;48.800;9.680;2023-08-08T02:40:22;10.80;99.90
15160;DHT22;7680;48.800;9.680;2023-08-08T02:45:26;10.90;99.90
15160;DHT22;7680;48.800;9.680;2023-08-08T02:50:29;11.00;99.90
15160;DHT22;7680;48.800;9.680;2023-08-08T02:55:33;11.10;99.90
15160;DHT22;7680;48.800;9.680;2023-08-08T03:00:38;11.10;99.90
15160;DHT22;7680;48.800;9.680;2023-08-08T03:05:44;11.20;99.90
15160;DHT22;7680;48.800;9.680;2023-08-08T03:10:49;11.20;99.90
15160;DHT22;7680;48.800;9.680;2023-08-08T03:15:52;11.10;99.90
15160;DHT22;7680;48.800;9.680;2023-08-08T03:20:55;11.00;99.90
15160;DHT22;7680;48.800;9.680;2023-08-08T03:26:00;11.00;99.90
15160;DHT22;7680;48.800;9.680;2023-08-08T03:31:03;11.00;99.90
15160;DHT22;7680;48.800;9.680;2023-08-08T03:36:06;11.00;99.90
15160;DHT22;7680;48.800;9.680;2023-08-08T03:41:11;11.00;99.90
15160;DHT22;7680;48.800;9.680;2023-08-08T03:46:15;11.00;99.90
15160;DHT22;7680;48.800;9.680;2023-08-08T03:51:18;11.10;99.90
15160;DHT22;7680;48.800;9.680;2023-08-08T03:56:23;11.10;99.90
15160;DHT22;7680;48.800;9.680;2023-08-08T04:01:26;11.10;99.90
15160;DHT22;7680;48.800;9.680;2023-08-08T04:06:29;11.00;99.90
15160;DHT22;7680;48.800;9.680;2023-08-08T04:11:33;11.00;99.90
15160;DHT22;7680;48.800;9.680;2023-08-08T04:16:38;11.10;99.90
15160;DHT22;7680;48.800;9.680;2023-08-08T04:21:41;11.20;99.90
15160;DHT22;7680;48.800;9.680;2023-08-08T04:26:45;11.20;99.90
15160;DHT22;7680;48.800;9.680;2023-08-08T04:31:48;11.30;99.90
15160;DHT22;7680;48.800;9.680;2023-08-08T04:36:52;11.30;99.90
15160;DHT22;7680;48.800;9.680;2023-08-08T04:41:56;11.40;99.90
15160;DHT22;7680;48.800;9.680;2023-08-08T04:47:00;11.60;99.90
15160;DHT22;7680;48.800;9.680;2023-08-08T04:52:05;11.70;99.90
15160;DHT22;7680;48.800;9.680;2023-08-08T04:57:09;11.60;99.90
15160;DHT22;7680;48.800;9.680;2023-08-08T05:02:13;11.70;99.90
15160;DHT22;7680;48.800;9.680;2023-08-08T05:07:16;11.70;99.90
15160;DHT22;7680;48.800;9.680;2023-08-08T05:12:20;11.80;99.90
15160;DHT22;7680;48.800;9.680;2023-08-08T05:17:23;11.80;99.90
15160;DHT22;7680;48.800;9.680;2023-08-08T05:22:27;11.80;99.90
15160;DHT22;7680;48.800;9.680;2023-08-08T05:27:31;11.90;99.90
15160;DHT22;7680;48.800;9.680;2023-08-08T05:32:34;12.10;99.90
15160;DHT22;7680;48.800;9.680;2023-08-08T05:37:37;12.20;99.90
15160;DHT22;7680;48.800;9.680;2023-08-08T05:42:42;12.90;99.90
15160;DHT22;7680;48.800;9.680;2023-08-08T05:47:45;14.10;99.90
15160;DHT22;7680;48.800;9.680;2023-08-08T05:52:48;15.60;99.90
15160;DHT22;7680;48.800;9.680;2023-08-08T05:57:53;15.90;99.90
15160;DHT22;7680;48.800;9.680;2023-08-08T06:02:56;16.00;99.90
15160;DHT22;7680;48.800;9.680;2023-08-08T06:07:59;16.40;99.90
15160;DHT22;7680;48.800;9.680;2023-08-08T06:13:04;16.90;99.90
15160;DHT22;7680;48.800;9.680;2023-08-08T06:18:07;17.00;99.90
15160;DHT22;7680;48.800;9.680;2023-08-08T06:23:10;16.70;99.90
15160;DHT22;7680;48.800;9.680;2023-08-08T06:28:15;16.60;99.90
15160;DHT22;7680;48.800;9.680;2023-08-08T06:33:18;17.00;99.90
15160;DHT22;7680;48.800;9.680;2023-08-08T06:38:21;17.40;99.90
15160;DHT22;7680;48.800;9.680;2023-08-08T06:43:26;18.40;99.90
15160;DHT22;7680;48.800;9.680;2023-08-08T06:48:29;19.10;99.90
15160;DHT22;7680;48.800;9.680;2023-08-08T06:53:33;19.80;99.90
15160;DHT22;7680;48.800;9.680;2023-08-08T06:58:37;20.10;99.90
15160;DHT22;7680;48.800;9.680;2023-08-08T07:03:40;20.30;99.90
15160;DHT22;7680;48.800;9.680;2023-08-08T07:08:45;20.50;99.90
15160;DHT22;7680;48.800;9.680;2023-08-08T07:13:50;20.90;99.90
15160;DHT22;7680;48.800;9.680;2023-08-08T07:18:53;21.10;99.90
15160;DHT22;7680;48.800;9.680;2023-08-08T07:23:57;21.10;99.90
15160;DHT22;7680;48.800;9.680;2023-08-08T07:29:02;21.10;99.90
15160;DHT22;7680;48.800;9.680;2023-08-08T07:34:07;21.20;99.90
15160;DHT22;7680;48.800;9.680;2023-08-08T07:39:10;21.40;99.90
15160;DHT22;7680;48.800;9.680;2023-08-08T07:44:15;21.40;99.90
15160;DHT22;7680;48.800;9.680;2023-08-08T07:49:18;21.50;99.90
15160;DHT22;7680;48.800;9.680;2023-08-08T07:54:21;22.00;99.60
15160;DHT22;7680;48.800;9.680;2023-08-08T07:59:26;22.00;99.10
15160;DHT22;7680;48.800;9.680;2023-08-08T08:04:29;22.00;99.90
15160;DHT22;7680;48.800;9.680;2023-08-08T08:09:33;21.70;98.70
15160;DHT22;7680;48.800;9.680;2023-08-08T08:14:37;21.60;99.50
15160;DHT22;7680;48.800;9.680;2023-08-08T08:19:40;22.00;99.50
15160;DHT22;7680;48.800;9.680;2023-08-08T08:24:43;22.40;98.80
15160;DHT22;7680;48.800;9.680;2023-08-08T08:29:49;22.50;98.60
15160;DHT22;7680;48.800;9.680;2023-08-08T08:34:52;22.60;98.80
15160;DHT22;7680;48.800;9.680;2023-08-08T08:39:55;22.40;98.10
15160;DHT22;7680;48.800;9.680;2023-08-08T08:45:02;22.20;97.90
15160;DHT22;7680;48.800;9.680;2023-08-08T08:50:07;21.80;99.80
15160;DHT22;7680;48.800;9.680;2023-08-08T08:55:10;21.90;98.60
15160;DHT22;7680;48.800;9.680;2023-08-08T09:00:15;22.20;98.20
15160;DHT22;7680;48.800;9.680;2023-08-08T09:05:21;22.20;96.50
15160;DHT22;7680;48.800;9.680;2023-08-08T09:10:24;22.20;96.50
15160;DHT22;7680;48.800;9.680;2023-08-08T09:15:31;22.10;96.20
15160;DHT22;7680;48.800;9.680;2023-08-08T09:20:34;22.00;96.20
15160;DHT22;7680;48.800;9.680;2023-08-08T09:25:37;21.90;96.50
15160;DHT22;7680;48.800;9.680;2023-08-08T09:30:43;21.30;96.90
15160;DHT22;7680;48.800;9.680;2023-08-08T09:35:46;21.70;96.50
15160;DHT22;7680;48.800;9.680;2023-08-08T09:40:50;22.10;96.70
15160;DHT22;7680;48.800;9.680;2023-08-08T09:45:55;22.20;96.00
15160;DHT22;7680;48.800;9.680;2023-08-08T09:50:58;22.20;94.70
15160;DHT22;7680;48.800;9.680;2023-08-08T09:56:03;21.70;95.60
15160;DHT22;7680;48.800;9.680;2023-08-08T10:01:08;21.70;95.80
15160;DHT22;7680;48.800;9.680;2023-08-08T10:06:15;21.90;95.30
15160;DHT22;7680;48.800;9.680;2023-08-08T10:11:18;22.00;95.50
15160;DHT22;7680;48.800;9.680;2023-08-08T10:16:25;22.10;94.80
15160;DHT22;7680;48.800;9.680;2023-08-08T10:21:33;22.40;94.50
15160;DHT22;7680;48.800;9.680;2023-08-08T10:26:51;23.00;94.70
15160;DHT22;7680;48.800;9.680;2023-08-08T10:32:00;23.20;93.80
15160;DHT22;7680;48.800;9.680;2023-08-08T10:37:08;23.10;92.70
15160;DHT22;7680;48.800;9.680;2023-08-08T10:42:18;22.80;92.00
15160;DHT22;7680;48.800;9.680;2023-08-08T10:47:23;22.90;94.10
15160;DHT22;7680;48.800;9.680;2023-08-08T10:52:27;23.00;91.30
15160;DHT22;7680;48.800;9.680;2023-08-08T10:57:30;22.90;91.90
15160;DHT22;7680;48.800;9.680;2023-08-08T11:02:35;22.80;90.70
15160;DHT22;7680;48.800;9.680;2023-08-08T11:07:38;22.60;91.30
15160;DHT22;7680;48.800;9.680;2023-08-08T11:12:41;22.60;91.90
15160;DHT22;7680;48.800;9.680;2023-08-08T11:17:46;23.00;90.50
15160;DHT22;7680;48.800;9.680;2023-08-08T11:22:53;22.60;91.50
15160;DHT22;7680;48.800;9.680;2023-08-08T11:27:58;23.00;90.40
15160;DHT22;7680;48.800;9.680;2023-08-08T11:33:03;23.10;90.20
15160;DHT22;7680;48.800;9.680;2023-08-08T11:38:09;23.30;90.10
15160;DHT22;7680;48.800;9.680;2023-08-08T11:43:12;23.10;90.30
15160;DHT22;7680;48.800;9.680;2023-08-08T11:48:20;23.50;85.00
15160;DHT22;7680;48.800;9.680;2023-08-08T11:53:24;23.20;87.70
15160;DHT22;7680;48.800;9.680;2023-08-08T11:58:27;23.00;88.00
15160;DHT22;7680;48.800;9.680;2023-08-08T12:03:31;23.00;89.30
15160;DHT22;7680;48.800;9.680;2023-08-08T12:08:35;23.30;87.70
15160;DHT22;7680;48.800;9.680;2023-08-08T12:13:38;22.80;87.40
15160;DHT22;7680;48.800;9.680;2023-08-08T12:18:44;22.70;86.20
15160;DHT22;7680;48.800;9.680;2023-08-08T12:23:47;22.50;86.30
15160;DHT22;7680;48.800;9.680;2023-08-08T12:28:50;22.50;86.10
15160;DHT22;7680;48.800;9.680;2023-08-08T12:33:57;22.70;87.00
15160;DHT22;7680;48.800;9.680;2023-08-08T12:39:00;22.60;87.20
15160;DHT22;7680;48.800;9.680;2023-08-08T12:44:03;23.00;86.80
15160;DHT22;7680;48.800;9.680;2023-08-08T12:49:08;23.30;84.30
15160;DHT22;7680;48.800;9.680;2023-08-08T12:54:11;23.30;86.80
15160;DHT22;7680;48.800;9.680;2023-08-08T12:59:14;23.20;81.40
15160;DHT22;7680;48.800;9.680;2023-08-08T13:04:18;23.40;83.10
15160;DHT22;7680;48.800;9.680;2023-08-08T13:09:22;23.30;85.30
15160;DHT22;7680;48.800;9.680;2023-08-08T13:14:25;23.30;83.60
15160;DHT22;7680;48.800;9.680;2023-08-08T13:19:29;23.40;80.90
15160;DHT22;7680;48.800;9.680;2023-08-08T13:24:33;23.30;81.60
15160;DHT22;7680;48.800;9.680;2023-08-08T13:29:36;23.20;82.80
15160;DHT22;7680;48.800;9.680;2023-08-08T13:34:40;23.00;83.50
15160;DHT22;7680;48.800;9.680;2023-08-08T13:39:43;22.90;83.40
15160;DHT22;7680;48.800;9.680;2023-08-08T13:44:47;23.20;84.10
15160;DHT22;7680;48.800;9.680;2023-08-08T13:49:54;22.80;82.00
15160;DHT22;7680;48.800;9.680;2023-08-08T13:54:57;22.60;85.50
15160;DHT22;7680;48.800;9.680;2023-08-08T14:00:01;22.50;83.90
15160;DHT22;7680;48.800;9.680;2023-08-08T14:05:06;22.40;83.90
15160;DHT22;7680;48.800;9.680;2023-08-08T14:10:10;22.10;86.20
15160;DHT22;7680;48.800;9.680;2023-08-08T14:15:13;22.00;89.20
15160;DHT22;7680;48.800;9.680;2023-08-08T14:20:18;21.80;90.40
15160;DHT22;7680;48.800;9.680;2023-08-08T14:25:22;21.80;90.40
15160;DHT22;7680;48.800;9.680;2023-08-08T14:30:25;21.70;90.80
15160;DHT22;7680;48.800;9.680;2023-08-08T14:35:30;22.20;90.40
15160;DHT22;7680;48.800;9.680;2023-08-08T14:40:34;22.60;90.70
15160;DHT22;7680;48.800;9.680;2023-08-08T14:45:38;22.60;90.60
15160;DHT22;7680;48.800;9.680;2023-08-08T14:50:44;22.60;90.20
15160;DHT22;7680;48.800;9.680;2023-08-08T14:55:47;23.00;90.50
15160;DHT22;7680;48.800;9.680;2023-08-08T15:00:50;22.80;90.30
15160;DHT22;7680;48.800;9.680;2023-08-08T15:05:55;22.90;87.90
15160;DHT22;7680;48.800;9.680;2023-08-08T15:10:58;22.80;88.10
15160;DHT22;7680;48.800;9.680;2023-08-08T15:16:01;22.50;87.30
15160;DHT22;7680;48.800;9.680;2023-08-08T15:21:06;22.10;89.30
15160;DHT22;7680;48.800;9.680;2023-08-08T15:26:09;21.80;89.90
15160;DHT22;7680;48.800;9.680;2023-08-08T15:31:13;21.50;90.70
15160;DHT22;7680;48.800;9.680;2023-08-08T15:36:19;21.50;91.10
15160;DHT22;7680;48.800;9.680;2023-08-08T15:41:22;21.70;92.00
15160;DHT22;7680;48.800;9.680;2023-08-08T15:46:25;21.80;91.30
15160;DHT22;7680;48.800;9.680;2023-08-08T15:51:30;21.50;91.10
15160;DHT22;7680;48.800;9.680;2023-08-08T15:56:33;21.40;91.50
15160;DHT22;7680;48.800;9.680;2023-08-08T16:01:38;21.50;91.00
15160;DHT22;7680;48.800;9.680;2023-08-08T16:06:42;21.30;91.70
15160;DHT22;7680;48.800;9.680;2023-08-08T16:11:46;21.10;91.80
15160;DHT22;7680;48.800;9.680;2023-08-08T16:16:49;21.00;92.60
15160;DHT22;7680;48.800;9.680;2023-08-08T16:21:54;21.10;93.10
15160;DHT22;7680;48.800;9.680;2023-08-08T16:26:57;21.40;92.60
15160;DHT22;7680;48.800;9.680;2023-08-08T16:32:01;21.40;93.10
15160;DHT22;7680;48.800;9.680;2023-08-08T16:37:06;21.40;92.30
15160;DHT22;7680;48.800;9.680;2023-08-08T16:42:10;21.20;92.30
15160;DHT22;7680;48.800;9.680;2023-08-08T16:47:17;20.80;93.20
15160;DHT22;7680;48.800;9.680;2023-08-08T16:52:21;20.80;93.10
15160;DHT22;7680;48.800;9.680;2023-08-08T16:57:24;20.80;94.30
15160;DHT22;7680;48.800;9.680;2023-08-08T17:02:27;20.90;94.10
15160;DHT22;7680;48.800;9.680;2023-08-08T17:07:32;20.70;94.10
15160;DHT22;7680;48.800;9.680;2023-08-08T17:12:36;20.70;93.40
15160;DHT22;7680;48.800;9.680;2023-08-08T17:17:39;20.60;93.50
15160;DHT22;7680;48.800;9.680;2023-08-08T17:22:44;20.60;94.30
15160;DHT22;7680;48.800;9.680;2023-08-08T17:27:47;20.60;94.30
15160;DHT22;7680;48.800;9.680;2023-08-08T17:32:50;20.60;94.80
15160;DHT22;7680;48.800;9.680;2023-08-08T17:37:55;20.50;94.60
15160;DHT22;7680;48.800;9.680;2023-08-08T17:43:00;20.30;94.60
15160;DHT22;7680;48.800;9.680;2023-08-08T17:48:03;20.20;94.30
15160;DHT22;7680;48.800;9.680;2023-08-08T17:53:08;20.00;94.20
15160;DHT22;7680;48.800;9.680;2023-08-08T17:58:12;20.00;94.60
15160;DHT22;7680;48.800;9.680;2023-08-08T18:03:15;19.80;95.40
15160;DHT22;7680;48.800;9.680;2023-08-08T18:08:19;19.70;95.50
15160;DHT22;7680;48.800;9.680;2023-08-08T18:13:22;19.60;96.40
15160;DHT22;7680;48.800;9.680;2023-08-08T18:18:26;19.50;96.40
15160;DHT22;7680;48.800;9.680;2023-08-08T18:23:30;19.30;96.20
15160;DHT22;7680;48.800;9.680;2023-08-08T18:28:34;19.10;96.80
15160;DHT22;7680;48.800;9.680;2023-08-08T18:33:37;18.90;98.20
15160;DHT22;7680;48.800;9.680;2023-08-08T18:38:42;18.80;98.00
15160;DHT22;7680;48.800;9.680;2023-08-08T18:43:45;18.70;99.60
15160;DHT22;7680;48.800;9.680;2023-08-08T18:48:48;18.60;99.90
15160;DHT22;7680;48.800;9.680;2023-08-08T18:53:53;18.40;99.90
15160;DHT22;7680;48.800;9.680;2023-08-08T18:58:56;18.30;99.90
15160;DHT22;7680;48.800;9.680;2023-08-08T19:03:59;18.20;99.90
15160;DHT22;7680;48.800;9.680;2023-08-08T19:09:04;18.10;99.90
15160;DHT22;7680;48.800;9.680;2023-08-08T19:14:10;18.00;99.90
15160;DHT22;7680;48.800;9.680;2023-08-08T19:19:13;18.00;99.90
15160;DHT22;7680;48.800;9.680;2023-08-08T19:24:17;17.90;99.90
15160;DHT22;7680;48.800;9.680;2023-08-08T19:29:21;17.90;99.90
15160;DHT22;7680;48.800;9.680;2023-08-08T19:34:24;17.90;99.90
15160;DHT22;7680;48.800;9.680;2023-08-08T19:39:28;17.80;99.90
15160;DHT22;7680;48.800;9.680;2023-08-08T19:44:34;17.80;99.90
15160;DHT22;7680;48.800;9.680;2023-08-08T19:49:37;17.80;99.90
15160;DHT22;7680;48.800;9.680;2023-08-08T19:54:42;17.70;99.90
15160;DHT22;7680;48.800;9.680;2023-08-08T19:59:45;17.70;99.90
15160;DHT22;7680;48.800;9.680;2023-08-08T20:04:50;17.60;99.90
15160;DHT22;7680;48.800;9.680;2023-08-08T20:09:54;17.50;99.90
15160;DHT22;7680;48.800;9.680;2023-08-08T20:14:57;17.50;99.90
15160;DHT22;7680;48.800;9.680;2023-08-08T20:20:01;17.50;99.90
15160;DHT22;7680;48.800;9.680;2023-08-08T20:25:06;17.50;99.90
15160;DHT22;7680;48.800;9.680;2023-08-08T20:30:10;17.50;99.90
15160;DHT22;7680;48.800;9.680;2023-08-08T20:35:14;17.60;99.90
15160;DHT22;7680;48.800;9.680;2023-08-08T20:40:19;17.50;99.90
15160;DHT22;7680;48.800;9.680;2023-08-08T20:45:22;17.30;99.90
15160;DHT22;7680;48.800;9.680;2023-08-08T20:50:26;17.30;99.90
15160;DHT22;7680;48.800;9.680;2023-08-08T20:55:31;17.20;99.90
15160;DHT22;7680;48.800;9.680;2023-08-08T21:00:34;17.10;99.90
15160;DHT22;7680;48.800;9.680;2023-08-08T21:05:37;17.00;99.90
15160;DHT22;7680;48.800;9.680;2023-08-08T21:10:42;17.00;99.90
15160;DHT22;7680;48.800;9.680;2023-08-08T21:15:46;16.90;99.90
15160;DHT22;7680;48.800;9.680;2023-08-08T21:20:49;16.80;99.90
15160;DHT22;7680;48.800;9.680;2023-08-08T21:25:53;16.70;99.90
15160;DHT22;7680;48.800;9.680;2023-08-08T21:30:56;16.70;99.90
15160;DHT22;7680;48.800;9.680;2023-08-08T21:35:59;16.60;99.90
15160;DHT22;7680;48.800;9.680;2023-08-08T21:41:04;16.50;99.90
15160;DHT22;7680;48.800;9.680;2023-08-08T21:46:07;16.30;99.90
15160;DHT22;7680;48.800;9.680;2023-08-08T21:51:10;16.20;99.90
15160;DHT22;7680;48.800;9.680;2023-08-08T21:56:16;16.20;99.90
15160;DHT22;7680;48.800;9.680;2023-08-08T22:01:19;16.00;99.90
15160;DHT22;7680;48.800;9.680;2023-08-08T22:06:22;16.00;99.90
15160;DHT22;7680;48.800;9.680;2023-08-08T22:11:26;15.90;99.90
15160;DHT22;7680;48.800;9.680;2023-08-08T22:16:31;15.70;99.90
15160;DHT22;7680;48.800;9.680;2023-08-08T22:21:34;15.60;99.90
15160;DHT22;7680;48.800;9.680;2023-08-08T22:26:38;15.60;99.90
15160;DHT22;7680;48.800;9.680;2023-08-08T22:31:41;15.50;99.90
15160;DHT22;7680;48.800;9.680;2023-08-08T22:36:45;15.40;99.90
15160;DHT22;7680;48.800;9.680;2023-08-08T22:41:49;15.40;99.90
15160;DHT22;7680;48.800;9.680;2023-08-08T22:46:52;15.50;99.90
15160;DHT22;7680;48.800;9.680;2023-08-08T22:51:55;15.40;99.90
15160;DHT22;7680;48.800;9.680;2023-08-08T22:57:00;15.40;99.90
15160;DHT22;7680;48.800;9.680;2023-08-08T23:02:04;15.40;99.90
15160;DHT22;7680;48.800;9.680;2023-08-08T23:07:07;15.40;99.90
15160;DHT22;7680;48.800;9.680;2023-08-08T23:12:11;15.40;99.90
15160;DHT22;7680;48.800;9.680;2023-08-08T23:17:14;15.40;99.90
15160;DHT22;7680;48.800;9.680;2023-08-08T23:22:17;15.40;99.90
15160;DHT22;7680;48.800;9.680;2023-08-08T23:27:22;15.30;99.90
15160;DHT22;7680;48.800;9.680;2023-08-08T23:32:25;15.20;99.90
15160;DHT22;7680;48.800;9.680;2023-08-08T23:37:28;15.20;99.90
15160;DHT22;7680;48.800;9.680;2023-08-08T23:42:33;15.10;99.90
15160;DHT22;7680;48.800;9.680;2023-08-08T23:47:37;15.00;99.90
15160;DHT22;7680;48.800;9.680;2023-08-08T23:52:40;14.90;99.90
15160;DHT22;7680;48.800;9.680;2023-08-08T23:57:45;14.90;99.90
